sensor_id;sensor_type;location;lat;lon;timestamp;P1;durP1;ratioP1;P2;durP2;ratioP2
8819;SDS011;4446;50.876;4.736;2022-11-20T00:01:43;30.38;;;20.15;;
8819;SDS011;4446;50.876;4.736;2022-11-20T00:04:10;33.58;;;21.63;;
8819;SDS011;4446;50.876;4.736;2022-11-20T00:06:37;30.67;;;20.73;;
8819;SDS011;4446;50.876;4.736;2022-11-20T00:09:04;31.50;;;21.15;;
8819;SDS011;4446;50.876;4.736;2022-11-20T00:11:31;34.17;;;21.17;;
8819;SDS011;4446;50.876;4.736;2022-11-20T00:13:59;32.92;;;20.75;;
8819;SDS011;4446;50.876;4.736;2022-11-20T00:16:28;32.15;;;20.08;;
8819;SDS011;4446;50.876;4.736;2022-11-20T00:18:59;31.70;;;20.05;;
8819;SDS011;4446;50.876;4.736;2022-11-20T00:21:26;35.08;;;21.05;;
8819;SDS011;4446;50.876;4.736;2022-11-20T00:23:55;30.42;;;20.75;;
8819;SDS011;4446;50.876;4.736;2022-11-20T00:26:24;33.88;;;21.95;;
8819;SDS011;4446;50.876;4.736;2022-11-20T00:28:53;30.13;;;20.25;;
8819;SDS011;4446;50.876;4.736;2022-11-20T00:31:21;29.60;;;20.00;;
8819;SDS011;4446;50.876;4.736;2022-11-20T00:33:48;30.30;;;20.63;;
8819;SDS011;4446;50.876;4.736;2022-11-20T00:36:17;34.13;;;21.55;;
8819;SDS011;4446;50.876;4.736;2022-11-20T00:38:45;31.08;;;20.38;;
8819;SDS011;4446;50.876;4.736;2022-11-20T00:41:13;32.15;;;21.67;;
8819;SDS011;4446;50.876;4.736;2022-11-20T00:43:41;33.30;;;21.08;;
8819;SDS011;4446;50.876;4.736;2022-11-20T00:46:10;30.67;;;19.58;;
8819;SDS011;4446;50.876;4.736;2022-11-20T00:48:40;34.00;;;20.85;;
8819;SDS011;4446;50.876;4.736;2022-11-20T00:51:07;30.60;;;19.88;;
8819;SDS011;4446;50.876;4.736;2022-11-20T00:53:35;32.00;;;20.48;;
8819;SDS011;4446;50.876;4.736;2022-11-20T00:56:03;34.53;;;21.45;;
8819;SDS011;4446;50.876;4.736;2022-11-20T00:58:32;32.70;;;21.20;;
8819;SDS011;4446;50.876;4.736;2022-11-20T01:01:00;26.90;;;18.05;;
8819;SDS011;4446;50.876;4.736;2022-11-20T01:03:30;29.25;;;19.00;;
8819;SDS011;4446;50.876;4.736;2022-11-20T01:05:59;32.53;;;21.23;;
8819;SDS011;4446;50.876;4.736;2022-11-20T01:08:29;32.20;;;20.75;;
8819;SDS011;4446;50.876;4.736;2022-11-20T01:11:00;34.28;;;21.58;;
8819;SDS011;4446;50.876;4.736;2022-11-20T01:13:28;30.63;;;20.05;;
8819;SDS011;4446;50.876;4.736;2022-11-20T01:16:05;33.72;;;21.45;;
8819;SDS011;4446;50.876;4.736;2022-11-20T01:18:34;31.80;;;20.08;;
8819;SDS011;4446;50.876;4.736;2022-11-20T01:21:02;32.33;;;20.65;;
8819;SDS011;4446;50.876;4.736;2022-11-20T01:23:31;30.23;;;20.15;;
8819;SDS011;4446;50.876;4.736;2022-11-20T01:26:00;33.40;;;20.52;;
8819;SDS011;4446;50.876;4.736;2022-11-20T01:28:28;31.17;;;21.02;;
8819;SDS011;4446;50.876;4.736;2022-11-20T01:30:56;30.83;;;20.73;;
8819;SDS011;4446;50.876;4.736;2022-11-20T01:33:23;39.47;;;21.88;;
8819;SDS011;4446;50.876;4.736;2022-11-20T01:35:51;31.80;;;20.40;;
8819;SDS011;4446;50.876;4.736;2022-11-20T01:38:18;34.17;;;21.15;;
8819;SDS011;4446;50.876;4.736;2022-11-20T01:40:53;35.25;;;21.27;;
8819;SDS011;4446;50.876;4.736;2022-11-20T01:43:23;33.90;;;21.50;;
8819;SDS011;4446;50.876;4.736;2022-11-20T01:46:01;36.38;;;22.20;;
8819;SDS011;4446;50.876;4.736;2022-11-20T01:48:40;34.90;;;20.70;;
8819;SDS011;4446;50.876;4.736;2022-11-20T01:51:12;38.30;;;22.23;;
8819;SDS011;4446;50.876;4.736;2022-11-20T01:53:45;35.60;;;20.80;;
8819;SDS011;4446;50.876;4.736;2022-11-20T01:56:13;39.78;;;22.67;;
8819;SDS011;4446;50.876;4.736;2022-11-20T01:58:43;37.60;;;22.73;;
8819;SDS011;4446;50.876;4.736;2022-11-20T02:01:18;36.75;;;21.02;;
8819;SDS011;4446;50.876;4.736;2022-11-20T02:03:46;40.22;;;24.15;;
8819;SDS011;4446;50.876;4.736;2022-11-20T02:06:15;35.42;;;20.98;;
8819;SDS011;4446;50.876;4.736;2022-11-20T02:08:45;34.25;;;21.45;;
8819;SDS011;4446;50.876;4.736;2022-11-20T02:11:13;39.45;;;22.40;;
8819;SDS011;4446;50.876;4.736;2022-11-20T02:13:40;44.10;;;23.45;;
8819;SDS011;4446;50.876;4.736;2022-11-20T02:16:18;39.05;;;23.10;;
8819;SDS011;4446;50.876;4.736;2022-11-20T02:18:48;33.42;;;21.27;;
8819;SDS011;4446;50.876;4.736;2022-11-20T02:21:27;34.83;;;22.67;;
8819;SDS011;4446;50.876;4.736;2022-11-20T02:24:10;31.92;;;19.98;;
8819;SDS011;4446;50.876;4.736;2022-11-20T02:26:42;33.35;;;22.35;;
8819;SDS011;4446;50.876;4.736;2022-11-20T02:29:15;36.47;;;23.27;;
8819;SDS011;4446;50.876;4.736;2022-11-20T02:31:45;35.63;;;21.15;;
8819;SDS011;4446;50.876;4.736;2022-11-20T02:34:13;38.55;;;22.02;;
8819;SDS011;4446;50.876;4.736;2022-11-20T02:36:40;39.45;;;22.70;;
8819;SDS011;4446;50.876;4.736;2022-11-20T02:39:10;38.22;;;22.80;;
8819;SDS011;4446;50.876;4.736;2022-11-20T02:41:41;38.28;;;23.65;;
8819;SDS011;4446;50.876;4.736;2022-11-20T02:44:09;37.85;;;23.45;;
8819;SDS011;4446;50.876;4.736;2022-11-20T02:46:36;38.13;;;24.13;;
8819;SDS011;4446;50.876;4.736;2022-11-20T02:49:03;37.20;;;22.02;;
8819;SDS011;4446;50.876;4.736;2022-11-20T02:51:31;39.55;;;23.75;;
8819;SDS011;4446;50.876;4.736;2022-11-20T02:53:58;38.72;;;24.27;;
8819;SDS011;4446;50.876;4.736;2022-11-20T02:56:27;43.58;;;25.83;;
8819;SDS011;4446;50.876;4.736;2022-11-20T02:58:54;45.05;;;25.27;;
8819;SDS011;4446;50.876;4.736;2022-11-20T03:01:21;43.30;;;24.80;;
8819;SDS011;4446;50.876;4.736;2022-11-20T03:03:48;44.15;;;23.58;;
8819;SDS011;4446;50.876;4.736;2022-11-20T03:06:17;40.53;;;24.17;;
8819;SDS011;4446;50.876;4.736;2022-11-20T03:08:44;39.53;;;22.33;;
8819;SDS011;4446;50.876;4.736;2022-11-20T03:11:11;41.03;;;24.98;;
8819;SDS011;4446;50.876;4.736;2022-11-20T03:13:39;44.58;;;24.80;;
8819;SDS011;4446;50.876;4.736;2022-11-20T03:16:08;42.67;;;23.40;;
8819;SDS011;4446;50.876;4.736;2022-11-20T03:18:36;38.72;;;22.60;;
8819;SDS011;4446;50.876;4.736;2022-11-20T03:21:04;46.85;;;25.13;;
8819;SDS011;4446;50.876;4.736;2022-11-20T03:23:32;41.53;;;24.75;;
8819;SDS011;4446;50.876;4.736;2022-11-20T03:28:47;45.20;;;25.45;;
8819;SDS011;4446;50.876;4.736;2022-11-20T03:31:17;49.53;;;26.05;;
8819;SDS011;4446;50.876;4.736;2022-11-20T03:33:45;49.05;;;25.25;;
8819;SDS011;4446;50.876;4.736;2022-11-20T03:36:13;48.53;;;26.45;;
8819;SDS011;4446;50.876;4.736;2022-11-20T03:38:41;50.65;;;24.65;;
8819;SDS011;4446;50.876;4.736;2022-11-20T03:41:09;47.55;;;25.15;;
8819;SDS011;4446;50.876;4.736;2022-11-20T03:43:37;49.92;;;25.05;;
8819;SDS011;4446;50.876;4.736;2022-11-20T03:46:07;51.75;;;26.25;;
8819;SDS011;4446;50.876;4.736;2022-11-20T03:48:34;44.78;;;25.00;;
8819;SDS011;4446;50.876;4.736;2022-11-20T03:51:11;50.92;;;26.27;;
8819;SDS011;4446;50.876;4.736;2022-11-20T03:53:39;48.17;;;26.00;;
8819;SDS011;4446;50.876;4.736;2022-11-20T03:56:07;48.92;;;24.08;;
8819;SDS011;4446;50.876;4.736;2022-11-20T03:58:36;47.22;;;24.63;;
8819;SDS011;4446;50.876;4.736;2022-11-20T04:01:06;43.92;;;24.90;;
8819;SDS011;4446;50.876;4.736;2022-11-20T04:03:34;46.47;;;23.83;;
8819;SDS011;4446;50.876;4.736;2022-11-20T04:06:03;46.97;;;24.73;;
8819;SDS011;4446;50.876;4.736;2022-11-20T04:08:31;44.60;;;24.20;;
8819;SDS011;4446;50.876;4.736;2022-11-20T04:11:07;46.45;;;24.35;;
8819;SDS011;4446;50.876;4.736;2022-11-20T04:13:36;43.47;;;23.58;;
8819;SDS011;4446;50.876;4.736;2022-11-20T04:16:03;45.97;;;24.13;;
8819;SDS011;4446;50.876;4.736;2022-11-20T04:18:32;42.80;;;22.85;;
8819;SDS011;4446;50.876;4.736;2022-11-20T04:20:59;42.13;;;23.30;;
8819;SDS011;4446;50.876;4.736;2022-11-20T04:23:27;37.90;;;21.77;;
8819;SDS011;4446;50.876;4.736;2022-11-20T04:25:54;40.90;;;23.88;;
8819;SDS011;4446;50.876;4.736;2022-11-20T04:28:26;42.85;;;22.60;;
8819;SDS011;4446;50.876;4.736;2022-11-20T04:30:53;39.53;;;21.90;;
8819;SDS011;4446;50.876;4.736;2022-11-20T04:33:20;44.17;;;23.65;;
8819;SDS011;4446;50.876;4.736;2022-11-20T04:35:48;48.38;;;24.10;;
8819;SDS011;4446;50.876;4.736;2022-11-20T04:38:15;37.55;;;21.98;;
8819;SDS011;4446;50.876;4.736;2022-11-20T04:40:42;35.63;;;20.30;;
8819;SDS011;4446;50.876;4.736;2022-11-20T04:43:09;39.63;;;22.35;;
8819;SDS011;4446;50.876;4.736;2022-11-20T04:45:36;38.65;;;21.65;;
8819;SDS011;4446;50.876;4.736;2022-11-20T04:48:03;37.08;;;20.38;;
8819;SDS011;4446;50.876;4.736;2022-11-20T04:50:31;34.78;;;20.10;;
8819;SDS011;4446;50.876;4.736;2022-11-20T04:52:59;33.10;;;19.63;;
8819;SDS011;4446;50.876;4.736;2022-11-20T04:55:26;34.83;;;20.00;;
8819;SDS011;4446;50.876;4.736;2022-11-20T04:57:53;35.35;;;20.75;;
8819;SDS011;4446;50.876;4.736;2022-11-20T05:00:20;37.17;;;19.85;;
8819;SDS011;4446;50.876;4.736;2022-11-20T05:02:48;31.48;;;18.80;;
8819;SDS011;4446;50.876;4.736;2022-11-20T05:05:15;29.17;;;17.58;;
8819;SDS011;4446;50.876;4.736;2022-11-20T05:07:42;33.03;;;18.80;;
8819;SDS011;4446;50.876;4.736;2022-11-20T05:10:10;33.35;;;19.60;;
8819;SDS011;4446;50.876;4.736;2022-11-20T05:12:37;32.63;;;19.08;;
8819;SDS011;4446;50.876;4.736;2022-11-20T05:15:04;33.38;;;18.80;;
8819;SDS011;4446;50.876;4.736;2022-11-20T05:17:32;37.53;;;19.85;;
8819;SDS011;4446;50.876;4.736;2022-11-20T05:19:59;33.88;;;19.08;;
8819;SDS011;4446;50.876;4.736;2022-11-20T05:22:26;32.25;;;18.13;;
8819;SDS011;4446;50.876;4.736;2022-11-20T05:24:53;35.20;;;19.20;;
8819;SDS011;4446;50.876;4.736;2022-11-20T05:27:21;35.83;;;20.13;;
8819;SDS011;4446;50.876;4.736;2022-11-20T05:29:48;36.35;;;19.98;;
8819;SDS011;4446;50.876;4.736;2022-11-20T05:32:15;36.67;;;20.17;;
8819;SDS011;4446;50.876;4.736;2022-11-20T05:34:42;40.05;;;19.35;;
8819;SDS011;4446;50.876;4.736;2022-11-20T05:37:09;36.22;;;20.27;;
8819;SDS011;4446;50.876;4.736;2022-11-20T05:39:36;35.60;;;19.60;;
8819;SDS011;4446;50.876;4.736;2022-11-20T05:42:03;36.38;;;20.10;;
8819;SDS011;4446;50.876;4.736;2022-11-20T05:44:48;36.78;;;19.00;;
8819;SDS011;4446;50.876;4.736;2022-11-20T05:47:15;39.63;;;19.90;;
8819;SDS011;4446;50.876;4.736;2022-11-20T05:49:42;33.38;;;18.45;;
8819;SDS011;4446;50.876;4.736;2022-11-20T05:52:09;33.90;;;17.88;;
8819;SDS011;4446;50.876;4.736;2022-11-20T05:54:37;42.78;;;21.10;;
8819;SDS011;4446;50.876;4.736;2022-11-20T05:57:04;34.58;;;19.27;;
8819;SDS011;4446;50.876;4.736;2022-11-20T05:59:30;33.63;;;17.40;;
8819;SDS011;4446;50.876;4.736;2022-11-20T06:01:59;37.53;;;19.40;;
8819;SDS011;4446;50.876;4.736;2022-11-20T06:04:26;36.65;;;19.83;;
8819;SDS011;4446;50.876;4.736;2022-11-20T06:06:53;41.58;;;20.55;;
8819;SDS011;4446;50.876;4.736;2022-11-20T06:09:20;39.50;;;19.90;;
8819;SDS011;4446;50.876;4.736;2022-11-20T06:11:47;37.90;;;19.88;;
8819;SDS011;4446;50.876;4.736;2022-11-20T06:14:15;35.83;;;19.38;;
8819;SDS011;4446;50.876;4.736;2022-11-20T06:16:42;35.50;;;18.83;;
8819;SDS011;4446;50.876;4.736;2022-11-20T06:19:10;39.38;;;19.40;;
8819;SDS011;4446;50.876;4.736;2022-11-20T06:21:37;40.10;;;20.65;;
8819;SDS011;4446;50.876;4.736;2022-11-20T06:24:04;37.13;;;19.17;;
8819;SDS011;4446;50.876;4.736;2022-11-20T06:26:32;38.17;;;19.85;;
8819;SDS011;4446;50.876;4.736;2022-11-20T06:28:59;34.58;;;19.20;;
8819;SDS011;4446;50.876;4.736;2022-11-20T06:31:26;35.13;;;19.25;;
8819;SDS011;4446;50.876;4.736;2022-11-20T06:33:53;35.05;;;18.50;;
8819;SDS011;4446;50.876;4.736;2022-11-20T06:36:22;35.30;;;19.13;;
8819;SDS011;4446;50.876;4.736;2022-11-20T06:38:49;38.25;;;19.55;;
8819;SDS011;4446;50.876;4.736;2022-11-20T06:41:18;38.50;;;19.38;;
8819;SDS011;4446;50.876;4.736;2022-11-20T06:43:46;39.42;;;19.42;;
8819;SDS011;4446;50.876;4.736;2022-11-20T06:46:14;36.85;;;19.30;;
8819;SDS011;4446;50.876;4.736;2022-11-20T06:48:43;39.13;;;19.98;;
8819;SDS011;4446;50.876;4.736;2022-11-20T06:51:10;49.50;;;22.60;;
8819;SDS011;4446;50.876;4.736;2022-11-20T06:53:40;45.22;;;21.50;;
8819;SDS011;4446;50.876;4.736;2022-11-20T06:56:07;46.58;;;21.33;;
8819;SDS011;4446;50.876;4.736;2022-11-20T06:58:35;47.22;;;20.48;;
8819;SDS011;4446;50.876;4.736;2022-11-20T07:01:03;50.17;;;20.73;;
8819;SDS011;4446;50.876;4.736;2022-11-20T07:03:32;48.72;;;20.65;;
8819;SDS011;4446;50.876;4.736;2022-11-20T07:06:00;56.63;;;23.05;;
8819;SDS011;4446;50.876;4.736;2022-11-20T07:08:27;53.88;;;22.85;;
8819;SDS011;4446;50.876;4.736;2022-11-20T07:10:58;48.58;;;21.65;;
8819;SDS011;4446;50.876;4.736;2022-11-20T07:13:26;54.03;;;22.67;;
8819;SDS011;4446;50.876;4.736;2022-11-20T07:15:53;62.03;;;23.40;;
8819;SDS011;4446;50.876;4.736;2022-11-20T07:18:21;65.90;;;23.98;;
8819;SDS011;4446;50.876;4.736;2022-11-20T07:20:48;70.63;;;25.00;;
8819;SDS011;4446;50.876;4.736;2022-11-20T07:23:15;62.63;;;23.80;;
8819;SDS011;4446;50.876;4.736;2022-11-20T07:25:42;62.20;;;22.77;;
8819;SDS011;4446;50.876;4.736;2022-11-20T07:28:10;60.38;;;22.85;;
8819;SDS011;4446;50.876;4.736;2022-11-20T07:30:37;72.13;;;23.73;;
8819;SDS011;4446;50.876;4.736;2022-11-20T07:33:04;57.30;;;22.33;;
8819;SDS011;4446;50.876;4.736;2022-11-20T07:35:31;74.50;;;24.67;;
8819;SDS011;4446;50.876;4.736;2022-11-20T07:37:58;70.15;;;24.92;;
8819;SDS011;4446;50.876;4.736;2022-11-20T07:40:26;65.88;;;22.92;;
8819;SDS011;4446;50.876;4.736;2022-11-20T07:42:54;67.38;;;24.25;;
8819;SDS011;4446;50.876;4.736;2022-11-20T07:45:23;66.43;;;24.63;;
8819;SDS011;4446;50.876;4.736;2022-11-20T07:47:51;64.78;;;23.55;;
8819;SDS011;4446;50.876;4.736;2022-11-20T07:50:18;65.53;;;25.77;;
8819;SDS011;4446;50.876;4.736;2022-11-20T07:52:46;62.80;;;22.98;;
8819;SDS011;4446;50.876;4.736;2022-11-20T07:55:13;73.50;;;25.88;;
8819;SDS011;4446;50.876;4.736;2022-11-20T07:57:40;68.00;;;23.83;;
8819;SDS011;4446;50.876;4.736;2022-11-20T08:00:08;66.53;;;24.55;;
8819;SDS011;4446;50.876;4.736;2022-11-20T08:02:39;72.38;;;25.60;;
8819;SDS011;4446;50.876;4.736;2022-11-20T08:05:08;68.97;;;24.38;;
8819;SDS011;4446;50.876;4.736;2022-11-20T08:07:36;80.40;;;26.35;;
8819;SDS011;4446;50.876;4.736;2022-11-20T08:10:04;74.95;;;24.58;;
8819;SDS011;4446;50.876;4.736;2022-11-20T08:12:33;66.78;;;24.67;;
8819;SDS011;4446;50.876;4.736;2022-11-20T08:15:18;60.38;;;22.08;;
8819;SDS011;4446;50.876;4.736;2022-11-20T08:17:46;72.32;;;25.10;;
8819;SDS011;4446;50.876;4.736;2022-11-20T08:20:13;68.93;;;25.23;;
8819;SDS011;4446;50.876;4.736;2022-11-20T08:22:40;62.78;;;23.23;;
8819;SDS011;4446;50.876;4.736;2022-11-20T08:25:08;66.97;;;25.40;;
8819;SDS011;4446;50.876;4.736;2022-11-20T08:27:35;62.25;;;23.73;;
8819;SDS011;4446;50.876;4.736;2022-11-20T08:30:02;67.00;;;24.75;;
8819;SDS011;4446;50.876;4.736;2022-11-20T08:32:29;69.43;;;25.20;;
8819;SDS011;4446;50.876;4.736;2022-11-20T08:34:58;73.88;;;27.35;;
8819;SDS011;4446;50.876;4.736;2022-11-20T08:37:24;64.45;;;25.17;;
8819;SDS011;4446;50.876;4.736;2022-11-20T08:39:51;66.45;;;26.17;;
8819;SDS011;4446;50.876;4.736;2022-11-20T08:42:22;69.53;;;25.95;;
8819;SDS011;4446;50.876;4.736;2022-11-20T08:44:49;65.88;;;26.23;;
8819;SDS011;4446;50.876;4.736;2022-11-20T08:47:16;62.58;;;23.92;;
8819;SDS011;4446;50.876;4.736;2022-11-20T08:49:43;70.50;;;24.90;;
8819;SDS011;4446;50.876;4.736;2022-11-20T08:52:11;60.40;;;23.45;;
8819;SDS011;4446;50.876;4.736;2022-11-20T08:54:41;66.43;;;24.20;;
8819;SDS011;4446;50.876;4.736;2022-11-20T08:57:08;64.05;;;25.48;;
8819;SDS011;4446;50.876;4.736;2022-11-20T08:59:35;63.15;;;25.25;;
8819;SDS011;4446;50.876;4.736;2022-11-20T09:02:02;57.95;;;21.70;;
8819;SDS011;4446;50.876;4.736;2022-11-20T09:04:29;63.97;;;23.75;;
8819;SDS011;4446;50.876;4.736;2022-11-20T09:06:56;65.05;;;25.85;;
8819;SDS011;4446;50.876;4.736;2022-11-20T09:09:27;59.15;;;22.75;;
8819;SDS011;4446;50.876;4.736;2022-11-20T09:11:54;57.70;;;23.08;;
8819;SDS011;4446;50.876;4.736;2022-11-20T09:14:21;59.58;;;24.70;;
8819;SDS011;4446;50.876;4.736;2022-11-20T09:16:49;56.83;;;22.52;;
8819;SDS011;4446;50.876;4.736;2022-11-20T09:19:16;56.10;;;23.88;;
8819;SDS011;4446;50.876;4.736;2022-11-20T09:21:43;56.08;;;21.75;;
8819;SDS011;4446;50.876;4.736;2022-11-20T09:24:10;58.70;;;24.45;;
8819;SDS011;4446;50.876;4.736;2022-11-20T09:26:39;60.58;;;22.85;;
8819;SDS011;4446;50.876;4.736;2022-11-20T09:29:06;57.13;;;23.90;;
8819;SDS011;4446;50.876;4.736;2022-11-20T09:31:33;57.33;;;22.17;;
8819;SDS011;4446;50.876;4.736;2022-11-20T09:34:00;53.90;;;22.30;;
8819;SDS011;4446;50.876;4.736;2022-11-20T09:36:27;59.20;;;22.48;;
8819;SDS011;4446;50.876;4.736;2022-11-20T09:38:54;54.83;;;22.88;;
8819;SDS011;4446;50.876;4.736;2022-11-20T09:41:29;57.55;;;23.50;;
8819;SDS011;4446;50.876;4.736;2022-11-20T09:48:02;47.60;;;21.27;;
8819;SDS011;4446;50.876;4.736;2022-11-20T09:50:41;45.63;;;20.00;;
8819;SDS011;4446;50.876;4.736;2022-11-20T09:53:16;44.75;;;19.52;;
8819;SDS011;4446;50.876;4.736;2022-11-20T09:55:51;44.97;;;20.73;;
8819;SDS011;4446;50.876;4.736;2022-11-20T09:58:21;47.55;;;21.45;;
8819;SDS011;4446;50.876;4.736;2022-11-20T10:00:54;41.97;;;18.83;;
8819;SDS011;4446;50.876;4.736;2022-11-20T10:03:29;41.75;;;20.40;;
8819;SDS011;4446;50.876;4.736;2022-11-20T10:06:04;38.80;;;18.70;;
8819;SDS011;4446;50.876;4.736;2022-11-20T10:08:39;38.28;;;18.90;;
8819;SDS011;4446;50.876;4.736;2022-11-20T10:11:12;35.85;;;17.88;;
8819;SDS011;4446;50.876;4.736;2022-11-20T10:13:46;35.53;;;17.92;;
8819;SDS011;4446;50.876;4.736;2022-11-20T10:16:21;35.40;;;17.98;;
8819;SDS011;4446;50.876;4.736;2022-11-20T10:19:02;36.38;;;18.65;;
8819;SDS011;4446;50.876;4.736;2022-11-20T10:21:40;37.72;;;18.10;;
8819;SDS011;4446;50.876;4.736;2022-11-20T10:27:30;31.02;;;17.17;;
8819;SDS011;4446;50.876;4.736;2022-11-20T10:30:20;32.42;;;17.13;;
8819;SDS011;4446;50.876;4.736;2022-11-20T10:32:52;32.78;;;17.50;;
8819;SDS011;4446;50.876;4.736;2022-11-20T10:35:29;32.90;;;16.48;;
8819;SDS011;4446;50.876;4.736;2022-11-20T10:38:02;31.40;;;16.20;;
8819;SDS011;4446;50.876;4.736;2022-11-20T10:40:34;32.60;;;16.52;;
8819;SDS011;4446;50.876;4.736;2022-11-20T10:43:07;30.33;;;15.57;;
8819;SDS011;4446;50.876;4.736;2022-11-20T10:45:43;30.20;;;15.80;;
8819;SDS011;4446;50.876;4.736;2022-11-20T10:48:16;27.65;;;16.00;;
8819;SDS011;4446;50.876;4.736;2022-11-20T10:50:56;25.63;;;14.90;;
8819;SDS011;4446;50.876;4.736;2022-11-20T10:53:51;28.08;;;14.82;;
8819;SDS011;4446;50.876;4.736;2022-11-20T10:56:24;24.27;;;13.38;;
8819;SDS011;4446;50.876;4.736;2022-11-20T10:59:03;24.92;;;13.32;;
8819;SDS011;4446;50.876;4.736;2022-11-20T11:01:52;24.05;;;13.05;;
8819;SDS011;4446;50.876;4.736;2022-11-20T11:04:24;19.88;;;12.07;;
8819;SDS011;4446;50.876;4.736;2022-11-20T11:07:04;20.85;;;11.07;;
8819;SDS011;4446;50.876;4.736;2022-11-20T11:09:38;19.20;;;11.18;;
8819;SDS011;4446;50.876;4.736;2022-11-20T11:12:09;15.15;;;9.98;;
8819;SDS011;4446;50.876;4.736;2022-11-20T11:14:47;14.40;;;9.23;;
8819;SDS011;4446;50.876;4.736;2022-11-20T11:17:20;14.98;;;9.35;;
8819;SDS011;4446;50.876;4.736;2022-11-20T11:19:58;11.50;;;7.70;;
8819;SDS011;4446;50.876;4.736;2022-11-20T11:22:27;12.82;;;7.22;;
8819;SDS011;4446;50.876;4.736;2022-11-20T11:24:56;10.52;;;7.00;;
8819;SDS011;4446;50.876;4.736;2022-11-20T11:27:23;10.32;;;6.15;;
8819;SDS011;4446;50.876;4.736;2022-11-20T11:29:50;8.93;;;6.32;;
8819;SDS011;4446;50.876;4.736;2022-11-20T11:32:30;8.52;;;5.90;;
8819;SDS011;4446;50.876;4.736;2022-11-20T11:35:00;8.38;;;5.78;;
8819;SDS011;4446;50.876;4.736;2022-11-20T11:37:33;10.40;;;5.50;;
8819;SDS011;4446;50.876;4.736;2022-11-20T11:40:02;8.32;;;5.15;;
8819;SDS011;4446;50.876;4.736;2022-11-20T11:42:30;8.48;;;4.90;;
8819;SDS011;4446;50.876;4.736;2022-11-20T11:44:58;6.80;;;5.07;;
8819;SDS011;4446;50.876;4.736;2022-11-20T11:47:31;8.18;;;4.90;;
8819;SDS011;4446;50.876;4.736;2022-11-20T11:50:14;6.68;;;4.43;;
8819;SDS011;4446;50.876;4.736;2022-11-20T11:52:46;7.38;;;4.22;;
8819;SDS011;4446;50.876;4.736;2022-11-20T11:55:19;7.53;;;3.70;;
8819;SDS011;4446;50.876;4.736;2022-11-20T11:57:57;6.93;;;3.92;;
8819;SDS011;4446;50.876;4.736;2022-11-20T12:00:35;6.15;;;3.88;;
8819;SDS011;4446;50.876;4.736;2022-11-20T12:03:08;5.45;;;3.70;;
8819;SDS011;4446;50.876;4.736;2022-11-20T12:05:42;5.47;;;3.28;;
8819;SDS011;4446;50.876;4.736;2022-11-20T12:08:14;5.70;;;3.28;;
8819;SDS011;4446;50.876;4.736;2022-11-20T12:10:48;5.35;;;3.13;;
8819;SDS011;4446;50.876;4.736;2022-11-20T12:16:11;6.75;;;3.10;;
8819;SDS011;4446;50.876;4.736;2022-11-20T12:18:40;4.90;;;2.97;;
8819;SDS011;4446;50.876;4.736;2022-11-20T12:21:18;2.95;;;2.50;;
8819;SDS011;4446;50.876;4.736;2022-11-20T12:26:45;3.42;;;2.80;;
8819;SDS011;4446;50.876;4.736;2022-11-20T12:29:24;4.97;;;2.80;;
8819;SDS011;4446;50.876;4.736;2022-11-20T12:32:13;3.65;;;2.60;;
8819;SDS011;4446;50.876;4.736;2022-11-20T12:35:00;5.57;;;2.95;;
8819;SDS011;4446;50.876;4.736;2022-11-20T12:37:39;7.70;;;2.70;;
8819;SDS011;4446;50.876;4.736;2022-11-20T12:40:17;2.92;;;2.28;;
8819;SDS011;4446;50.876;4.736;2022-11-20T12:43:01;6.03;;;2.63;;
8819;SDS011;4446;50.876;4.736;2022-11-20T12:45:58;6.47;;;2.60;;
8819;SDS011;4446;50.876;4.736;2022-11-20T12:48:50;4.75;;;2.67;;
8819;SDS011;4446;50.876;4.736;2022-11-20T12:51:32;5.80;;;2.63;;
8819;SDS011;4446;50.876;4.736;2022-11-20T12:54:15;5.32;;;2.63;;
8819;SDS011;4446;50.876;4.736;2022-11-20T12:57:03;5.22;;;2.88;;
8819;SDS011;4446;50.876;4.736;2022-11-20T12:59:50;3.95;;;2.60;;
8819;SDS011;4446;50.876;4.736;2022-11-20T13:02:25;4.20;;;2.65;;
8819;SDS011;4446;50.876;4.736;2022-11-20T13:04:59;6.18;;;2.70;;
8819;SDS011;4446;50.876;4.736;2022-11-20T13:07:45;4.00;;;2.90;;
8819;SDS011;4446;50.876;4.736;2022-11-20T13:10:18;4.60;;;2.88;;
8819;SDS011;4446;50.876;4.736;2022-11-20T13:12:55;6.05;;;3.22;;
8819;SDS011;4446;50.876;4.736;2022-11-20T13:15:33;5.22;;;3.20;;
8819;SDS011;4446;50.876;4.736;2022-11-20T13:18:10;5.35;;;3.10;;
8819;SDS011;4446;50.876;4.736;2022-11-20T13:20:41;5.30;;;3.28;;
8819;SDS011;4446;50.876;4.736;2022-11-20T13:23:22;5.40;;;2.92;;
8819;SDS011;4446;50.876;4.736;2022-11-20T13:25:50;6.68;;;3.30;;
8819;SDS011;4446;50.876;4.736;2022-11-20T13:28:30;7.03;;;3.60;;
8819;SDS011;4446;50.876;4.736;2022-11-20T13:30:58;6.30;;;3.58;;
8819;SDS011;4446;50.876;4.736;2022-11-20T13:33:29;6.80;;;3.63;;
8819;SDS011;4446;50.876;4.736;2022-11-20T13:35:58;8.23;;;3.72;;
8819;SDS011;4446;50.876;4.736;2022-11-20T13:38:27;7.75;;;3.60;;
8819;SDS011;4446;50.876;4.736;2022-11-20T13:41:07;6.68;;;3.88;;
8819;SDS011;4446;50.876;4.736;2022-11-20T13:43:51;5.57;;;3.45;;
8819;SDS011;4446;50.876;4.736;2022-11-20T13:46:20;6.60;;;3.20;;
8819;SDS011;4446;50.876;4.736;2022-11-20T13:48:50;4.80;;;2.95;;
8819;SDS011;4446;50.876;4.736;2022-11-20T13:51:26;5.40;;;3.63;;
8819;SDS011;4446;50.876;4.736;2022-11-20T13:54:11;5.68;;;3.92;;
8819;SDS011;4446;50.876;4.736;2022-11-20T13:56:52;7.15;;;3.45;;
8819;SDS011;4446;50.876;4.736;2022-11-20T13:59:34;5.60;;;3.10;;
8819;SDS011;4446;50.876;4.736;2022-11-20T14:02:17;6.00;;;3.33;;
8819;SDS011;4446;50.876;4.736;2022-11-20T14:04:47;5.50;;;3.58;;
8819;SDS011;4446;50.876;4.736;2022-11-20T14:07:16;3.60;;;3.20;;
8819;SDS011;4446;50.876;4.736;2022-11-20T14:09:51;6.68;;;3.47;;
8819;SDS011;4446;50.876;4.736;2022-11-20T14:12:21;6.55;;;3.53;;
8819;SDS011;4446;50.876;4.736;2022-11-20T14:14:52;5.25;;;3.15;;
8819;SDS011;4446;50.876;4.736;2022-11-20T14:17:21;5.13;;;3.47;;
8819;SDS011;4446;50.876;4.736;2022-11-20T14:19:51;7.43;;;3.55;;
8819;SDS011;4446;50.876;4.736;2022-11-20T14:22:20;4.43;;;3.17;;
8819;SDS011;4446;50.876;4.736;2022-11-20T14:24:49;4.47;;;3.70;;
8819;SDS011;4446;50.876;4.736;2022-11-20T14:27:29;4.60;;;3.30;;
8819;SDS011;4446;50.876;4.736;2022-11-20T14:30:03;5.22;;;3.17;;
8819;SDS011;4446;50.876;4.736;2022-11-20T14:32:33;5.65;;;3.28;;
8819;SDS011;4446;50.876;4.736;2022-11-20T14:35:03;4.50;;;3.80;;
8819;SDS011;4446;50.876;4.736;2022-11-20T14:37:36;6.80;;;3.33;;
8819;SDS011;4446;50.876;4.736;2022-11-20T14:40:05;6.13;;;3.17;;
8819;SDS011;4446;50.876;4.736;2022-11-20T14:42:49;4.72;;;3.40;;
8819;SDS011;4446;50.876;4.736;2022-11-20T14:45:18;6.72;;;3.20;;
8819;SDS011;4446;50.876;4.736;2022-11-20T14:47:46;5.88;;;3.58;;
8819;SDS011;4446;50.876;4.736;2022-11-20T14:50:16;6.80;;;3.70;;
8819;SDS011;4446;50.876;4.736;2022-11-20T14:52:50;5.53;;;3.03;;
8819;SDS011;4446;50.876;4.736;2022-11-20T14:55:25;4.20;;;2.85;;
8819;SDS011;4446;50.876;4.736;2022-11-20T14:57:57;6.28;;;3.30;;
8819;SDS011;4446;50.876;4.736;2022-11-20T15:00:28;3.90;;;2.85;;
8819;SDS011;4446;50.876;4.736;2022-11-20T15:02:56;3.60;;;3.13;;
8819;SDS011;4446;50.876;4.736;2022-11-20T15:05:24;3.60;;;3.00;;
8819;SDS011;4446;50.876;4.736;2022-11-20T15:08:03;4.95;;;3.28;;
8819;SDS011;4446;50.876;4.736;2022-11-20T15:10:32;3.90;;;3.25;;
8819;SDS011;4446;50.876;4.736;2022-11-20T15:13:00;5.30;;;3.92;;
8819;SDS011;4446;50.876;4.736;2022-11-20T15:15:31;5.65;;;4.20;;
8819;SDS011;4446;50.876;4.736;2022-11-20T15:18:01;4.70;;;3.70;;
8819;SDS011;4446;50.876;4.736;2022-11-20T15:20:30;6.28;;;3.45;;
8819;SDS011;4446;50.876;4.736;2022-11-20T15:22:58;4.20;;;3.47;;
8819;SDS011;4446;50.876;4.736;2022-11-20T15:25:25;5.68;;;4.00;;
8819;SDS011;4446;50.876;4.736;2022-11-20T15:27:54;5.57;;;4.07;;
8819;SDS011;4446;50.876;4.736;2022-11-20T15:30:22;5.28;;;3.78;;
8819;SDS011;4446;50.876;4.736;2022-11-20T15:32:51;4.25;;;3.50;;